createdAt,value
2022-12-31T00:01:29.732Z,0.52
2022-12-31T00:03:58.611Z,0.63
2022-12-31T00:06:33.930Z,0.50
2022-12-31T00:09:06.874Z,0.60
2022-12-31T00:11:35.898Z,0.50
2022-12-31T00:14:04.002Z,0.50
2022-12-31T00:16:41.088Z,0.50
2022-12-31T00:19:12.352Z,0.30
2022-12-31T00:21:39.794Z,0.52
2022-12-31T00:24:08.496Z,0.40
2022-12-31T00:26:36.392Z,0.50
2022-12-31T00:29:05.436Z,0.25
2022-12-31T00:31:38.082Z,0.50
2022-12-31T00:34:07.066Z,0.40
2022-12-31T00:36:38.769Z,0.52
2022-12-31T00:39:09.891Z,0.40
2022-12-31T00:41:37.942Z,0.50
2022-12-31T00:44:05.923Z,0.45
2022-12-31T00:46:33.537Z,0.40
2022-12-31T00:49:00.900Z,0.40
2022-12-31T00:51:29.026Z,0.40
2022-12-31T00:53:57.905Z,0.57
2022-12-31T00:56:30.077Z,0.50
2022-12-31T00:58:59.451Z,0.50
2022-12-31T01:01:32.328Z,0.43
2022-12-31T01:04:13.591Z,0.50
2022-12-31T01:06:43.632Z,0.60
2022-12-31T01:09:15.137Z,0.47
2022-12-31T01:11:42.870Z,0.43
2022-12-31T01:14:20.537Z,0.65
2022-12-31T01:16:52.414Z,1.00
2022-12-31T01:19:29.287Z,1.02
2022-12-31T01:21:56.955Z,0.80
2022-12-31T01:24:24.686Z,0.70
2022-12-31T01:26:52.262Z,0.50
2022-12-31T01:29:19.572Z,0.60
2022-12-31T01:31:47.180Z,0.40
2022-12-31T01:34:14.465Z,0.50
2022-12-31T01:36:41.705Z,0.40
2022-12-31T01:39:11.810Z,0.50
2022-12-31T01:41:47.186Z,0.50
2022-12-31T01:44:23.435Z,0.47
2022-12-31T01:47:04.518Z,0.60
2022-12-31T01:49:43.847Z,0.70
2022-12-31T01:52:31.801Z,0.60
2022-12-31T01:55:19.463Z,0.50
2022-12-31T01:57:52.110Z,0.60
2022-12-31T02:00:20.070Z,0.47
2022-12-31T02:02:47.523Z,0.60
2022-12-31T02:05:50.876Z,0.38
2022-12-31T02:08:18.700Z,0.70
2022-12-31T02:10:46.024Z,0.50
2022-12-31T02:13:15.166Z,0.50
2022-12-31T02:16:06.067Z,0.60
2022-12-31T02:18:57.135Z,0.60
2022-12-31T02:21:36.465Z,0.50
2022-12-31T02:24:44.888Z,0.50
2022-12-31T02:27:53.714Z,0.50
2022-12-31T02:30:24.773Z,0.50
2022-12-31T02:33:42.727Z,0.70
2022-12-31T02:36:27.848Z,0.50
2022-12-31T02:38:57.627Z,0.50
2022-12-31T02:41:44.048Z,0.55
2022-12-31T02:44:41.298Z,0.60
2022-12-31T02:47:08.466Z,0.30
2022-12-31T02:50:01.131Z,0.60
2022-12-31T02:53:20.651Z,0.60
2022-12-31T02:56:18.779Z,0.60
2022-12-31T02:59:22.973Z,0.60
2022-12-31T03:02:15.687Z,0.50
2022-12-31T03:04:54.434Z,0.52
2022-12-31T03:07:32.184Z,0.60
2022-12-31T03:10:01.265Z,0.60
2022-12-31T03:12:48.904Z,0.50
2022-12-31T03:15:37.274Z,0.30
2022-12-31T03:18:38.956Z,0.40
2022-12-31T03:21:32.290Z,0.60
2022-12-31T03:24:18.697Z,0.57
2022-12-31T03:26:45.969Z,0.50
2022-12-31T03:29:13.144Z,0.55
2022-12-31T03:31:40.504Z,0.45
2022-12-31T03:34:07.712Z,0.50
2022-12-31T03:36:34.893Z,0.55
2022-12-31T03:39:02.173Z,0.60
2022-12-31T03:41:29.415Z,0.60
2022-12-31T03:43:56.604Z,0.65
2022-12-31T03:46:23.882Z,0.52
2022-12-31T03:48:51.068Z,0.50
2022-12-31T03:51:18.307Z,0.60
2022-12-31T03:53:45.500Z,0.40
2022-12-31T03:56:12.732Z,0.70
2022-12-31T03:58:44.805Z,0.40
2022-12-31T04:01:14.537Z,0.55
2022-12-31T04:03:41.771Z,0.68
2022-12-31T04:06:09.127Z,0.50
2022-12-31T04:08:36.371Z,0.60
2022-12-31T04:11:04.600Z,0.47
2022-12-31T04:13:31.913Z,0.40
2022-12-31T04:15:59.247Z,0.32
2022-12-31T04:18:26.573Z,0.50
2022-12-31T04:20:53.842Z,0.43
2022-12-31T04:23:21.120Z,0.40
2022-12-31T04:25:48.334Z,0.50
2022-12-31T04:28:15.741Z,0.47
2022-12-31T04:30:43.940Z,0.55
2022-12-31T04:33:11.181Z,0.40
2022-12-31T04:35:38.550Z,0.50
2022-12-31T04:38:06.124Z,0.40
2022-12-31T04:40:33.433Z,0.45
2022-12-31T04:43:00.612Z,0.52
2022-12-31T04:45:27.976Z,0.40
2022-12-31T04:47:55.329Z,0.32
2022-12-31T04:50:22.526Z,0.40
2022-12-31T04:52:49.764Z,0.60
2022-12-31T04:55:17.320Z,0.50
2022-12-31T04:57:45.543Z,0.50
2022-12-31T05:00:13.720Z,0.50
2022-12-31T05:02:41.206Z,0.40
2022-12-31T05:05:09.436Z,0.40
2022-12-31T05:07:36.962Z,0.32
2022-12-31T05:10:05.415Z,0.30
2022-12-31T05:12:32.726Z,0.40
2022-12-31T05:15:00.276Z,0.43
2022-12-31T05:17:27.926Z,0.40
2022-12-31T05:19:55.593Z,0.25
2022-12-31T05:22:29.193Z,0.30
2022-12-31T05:24:59.579Z,0.40
2022-12-31T05:27:31.483Z,0.30
2022-12-31T05:30:00.022Z,0.40
2022-12-31T05:32:27.476Z,0.40
2022-12-31T05:34:54.734Z,0.20
2022-12-31T05:37:22.557Z,0.30
2022-12-31T05:39:50.576Z,0.30
2022-12-31T05:42:19.307Z,0.40
2022-12-31T05:44:47.009Z,0.30
2022-12-31T05:47:15.245Z,0.30
2022-12-31T05:49:42.701Z,0.47
2022-12-31T05:52:10.634Z,0.40
2022-12-31T05:54:37.961Z,0.40
2022-12-31T05:57:05.855Z,0.40
2022-12-31T05:59:33.516Z,0.50
2022-12-31T06:02:00.800Z,0.30
2022-12-31T06:04:28.189Z,0.30
2022-12-31T06:06:55.806Z,0.30
2022-12-31T06:09:23.889Z,0.38
2022-12-31T06:11:51.319Z,0.40
2022-12-31T06:14:18.956Z,0.40
2022-12-31T06:16:46.630Z,0.43
2022-12-31T06:19:14.207Z,0.30
2022-12-31T06:21:41.638Z,0.40
2022-12-31T06:24:09.094Z,0.30
2022-12-31T06:26:37.666Z,0.32
2022-12-31T06:29:05.551Z,0.45
2022-12-31T06:31:33.313Z,0.40
2022-12-31T06:34:00.768Z,0.35
2022-12-31T06:36:28.636Z,0.45
2022-12-31T06:38:56.130Z,0.50
2022-12-31T06:41:23.627Z,0.25
2022-12-31T06:43:51.118Z,0.40
2022-12-31T06:46:19.264Z,0.30
2022-12-31T06:48:46.780Z,0.40
2022-12-31T06:51:21.639Z,0.60
2022-12-31T06:53:51.897Z,0.40
2022-12-31T06:56:33.871Z,0.40
2022-12-31T06:59:09.976Z,0.40
2022-12-31T07:01:57.993Z,1.40
2022-12-31T07:05:42.053Z,0.45
2022-12-31T07:08:45.401Z,0.50
2022-12-31T07:11:35.986Z,0.70
2022-12-31T07:15:03.529Z,0.80
2022-12-31T07:17:49.814Z,0.50
2022-12-31T07:20:20.974Z,0.60
2022-12-31T07:22:49.197Z,0.50
2022-12-31T07:25:18.833Z,0.43
2022-12-31T07:28:41.343Z,0.40
2022-12-31T07:31:59.907Z,0.40
2022-12-31T07:35:09.647Z,0.50
2022-12-31T07:37:56.654Z,0.70
2022-12-31T07:41:09.366Z,0.80
2022-12-31T07:44:02.468Z,0.60
2022-12-31T07:46:41.306Z,0.45
2022-12-31T07:49:14.247Z,0.32
2022-12-31T07:51:43.455Z,0.60
2022-12-31T07:54:14.117Z,0.60
2022-12-31T07:56:43.403Z,0.50
2022-12-31T07:59:48.436Z,0.73
2022-12-31T08:02:56.526Z,0.50
2022-12-31T08:05:50.649Z,0.60
2022-12-31T08:08:45.206Z,0.50
2022-12-31T08:11:21.044Z,1.02
2022-12-31T08:13:50.459Z,0.60
2022-12-31T08:16:18.891Z,0.80
2022-12-31T08:18:46.968Z,1.13
2022-12-31T08:22:10.705Z,0.50
2022-12-31T08:25:19.981Z,0.52
2022-12-31T08:28:07.496Z,0.70
2022-12-31T08:31:14.639Z,0.80
2022-12-31T08:34:33.755Z,0.70
2022-12-31T08:37:13.868Z,0.63
2022-12-31T08:39:55.919Z,0.80
2022-12-31T08:43:16.216Z,0.50
2022-12-31T08:46:04.398Z,0.85
2022-12-31T08:48:50.913Z,0.50
2022-12-31T08:51:26.407Z,1.05
2022-12-31T08:53:55.450Z,0.70
2022-12-31T08:56:50.774Z,0.70
2022-12-31T08:59:56.019Z,1.02
2022-12-31T09:02:44.694Z,0.63
2022-12-31T09:05:30.985Z,0.63
2022-12-31T09:08:48.058Z,0.40
2022-12-31T09:12:30.147Z,0.55
2022-12-31T09:15:12.741Z,0.65
2022-12-31T09:17:49.856Z,0.60
2022-12-31T09:20:42.461Z,0.70
2022-12-31T09:23:13.257Z,0.50
2022-12-31T09:26:30.790Z,0.50
2022-12-31T09:29:37.609Z,0.60
2022-12-31T09:32:28.938Z,0.70
2022-12-31T09:35:34.501Z,0.70
2022-12-31T09:38:27.529Z,0.55
2022-12-31T09:41:17.154Z,0.70
2022-12-31T09:44:24.743Z,1.48
2022-12-31T09:47:23.136Z,1.20
2022-12-31T09:50:39.234Z,1.92
2022-12-31T09:53:58.700Z,2.22
2022-12-31T09:57:48.544Z,0.70
2022-12-31T10:00:49.105Z,0.60
2022-12-31T10:04:19.170Z,0.70
2022-12-31T10:07:18.547Z,0.80
2022-12-31T10:09:54.473Z,0.38
2022-12-31T10:13:09.280Z,0.40
2022-12-31T10:16:08.328Z,0.52
2022-12-31T10:19:12.710Z,0.70
2022-12-31T10:22:27.103Z,0.55
2022-12-31T10:25:14.889Z,0.50
2022-12-31T10:28:07.185Z,0.47
2022-12-31T10:30:49.245Z,0.50
2022-12-31T10:34:02.739Z,0.60
2022-12-31T10:37:19.223Z,0.65
2022-12-31T10:40:07.542Z,0.40
2022-12-31T10:43:06.004Z,0.40
2022-12-31T10:46:32.314Z,0.50
2022-12-31T10:49:40.618Z,0.50
2022-12-31T10:52:42.744Z,0.68
2022-12-31T10:56:13.289Z,0.50
2022-12-31T10:59:27.749Z,0.80
2022-12-31T11:02:37.841Z,0.60
2022-12-31T11:05:56.594Z,0.50
2022-12-31T11:09:20.413Z,0.60
2022-12-31T11:12:31.712Z,0.73
2022-12-31T11:15:54.626Z,0.50
2022-12-31T11:18:52.456Z,0.60
2022-12-31T11:22:19.625Z,0.55
2022-12-31T11:25:30.039Z,0.40
2022-12-31T11:28:47.749Z,0.57
2022-12-31T11:31:59.632Z,0.40
2022-12-31T11:35:00.734Z,0.63
2022-12-31T11:38:04.782Z,0.50
2022-12-31T11:41:28.594Z,0.43
2022-12-31T11:44:33.086Z,0.43
2022-12-31T11:47:31.839Z,0.40
2022-12-31T11:51:09.495Z,0.43
2022-12-31T11:54:21.952Z,0.57
2022-12-31T11:57:30.525Z,0.40
2022-12-31T12:00:30.500Z,0.60
2022-12-31T12:03:07.784Z,0.68
2022-12-31T12:05:38.726Z,0.30
2022-12-31T12:08:06.986Z,0.40
2022-12-31T12:11:18.822Z,0.70
2022-12-31T12:13:46.627Z,0.57
2022-12-31T12:16:15.463Z,0.60
2022-12-31T12:18:52.013Z,0.65
2022-12-31T12:21:23.198Z,0.47
2022-12-31T12:24:06.739Z,0.52
2022-12-31T12:26:42.824Z,0.32
2022-12-31T12:29:35.703Z,0.43
2022-12-31T12:32:27.011Z,0.70
2022-12-31T12:34:54.377Z,0.70
2022-12-31T12:37:24.485Z,0.50
2022-12-31T12:40:19.059Z,0.60
2022-12-31T12:42:53.129Z,0.60
2022-12-31T12:45:51.471Z,0.63
2022-12-31T12:48:41.609Z,0.60
2022-12-31T12:51:34.002Z,0.55
2022-12-31T12:54:16.309Z,0.70
2022-12-31T12:56:54.665Z,0.50
2022-12-31T12:59:59.949Z,0.70
2022-12-31T13:03:16.264Z,0.70
2022-12-31T13:06:33.665Z,0.80
2022-12-31T13:09:58.130Z,0.95
2022-12-31T13:13:25.465Z,0.85
2022-12-31T13:16:08.522Z,0.80
2022-12-31T13:19:34.319Z,0.80
2022-12-31T13:22:32.873Z,0.50
2022-12-31T13:25:15.977Z,0.73
2022-12-31T13:27:50.290Z,0.77
2022-12-31T13:30:28.652Z,0.82
2022-12-31T13:33:24.783Z,0.75
2022-12-31T13:36:00.345Z,1.08
2022-12-31T13:38:58.479Z,0.93
2022-12-31T13:41:39.959Z,2.58
2022-12-31T13:44:40.139Z,4.60
2022-12-31T13:47:46.800Z,1.02
2022-12-31T13:50:33.780Z,2.17
2022-12-31T13:53:17.898Z,6.25
2022-12-31T13:56:06.581Z,6.95
2022-12-31T13:58:53.213Z,4.78
2022-12-31T14:01:56.316Z,2.40
2022-12-31T14:04:41.915Z,2.53
2022-12-31T14:07:22.991Z,1.50
2022-12-31T14:09:50.350Z,1.95
2022-12-31T14:13:15.677Z,1.30
2022-12-31T14:16:04.909Z,1.95
2022-12-31T14:18:58.004Z,1.05
2022-12-31T14:22:01.485Z,1.10
2022-12-31T14:25:01.313Z,1.48
2022-12-31T14:27:41.551Z,1.38
2022-12-31T14:30:22.976Z,1.20
2022-12-31T14:33:26.800Z,1.40
2022-12-31T14:36:22.489Z,1.67
2022-12-31T14:39:39.635Z,1.60
2022-12-31T14:42:39.102Z,1.60
2022-12-31T14:46:04.456Z,1.83
2022-12-31T14:49:13.610Z,1.48
2022-12-31T14:51:41.593Z,1.73
2022-12-31T14:54:36.876Z,2.00
2022-12-31T14:57:24.370Z,2.00
2022-12-31T14:59:58.961Z,1.90
2022-12-31T15:02:35.371Z,1.83
2022-12-31T15:05:21.570Z,2.10
2022-12-31T15:08:14.985Z,1.60
2022-12-31T15:11:34.015Z,1.70
2022-12-31T15:14:51.014Z,2.83
2022-12-31T15:18:13.796Z,1.70
2022-12-31T15:21:04.695Z,2.33
2022-12-31T15:23:40.024Z,3.25
2022-12-31T15:26:23.354Z,2.90
2022-12-31T15:29:24.302Z,2.35
2022-12-31T15:31:52.654Z,2.28
2022-12-31T15:34:34.928Z,2.30
2022-12-31T15:37:06.834Z,1.67
2022-12-31T15:39:43.442Z,2.60
2022-12-31T15:42:50.188Z,2.30
2022-12-31T15:45:40.885Z,3.08
2022-12-31T15:48:32.578Z,2.75
2022-12-31T15:51:02.396Z,2.17
2022-12-31T15:53:55.272Z,2.63
2022-12-31T15:56:49.037Z,2.60
2022-12-31T15:59:21.964Z,2.67
2022-12-31T16:01:49.899Z,2.17
2022-12-31T16:04:20.917Z,2.50
2022-12-31T16:06:51.171Z,2.22
2022-12-31T16:09:34.333Z,2.75
2022-12-31T16:12:12.301Z,2.92
2022-12-31T16:14:50.831Z,6.20
2022-12-31T16:17:39.731Z,3.88
2022-12-31T16:20:31.460Z,5.20
2022-12-31T16:23:03.219Z,4.35
2022-12-31T16:25:33.514Z,5.93
2022-12-31T16:28:03.780Z,7.53
2022-12-31T16:30:35.774Z,5.25
2022-12-31T16:33:10.185Z,4.43
2022-12-31T16:35:37.985Z,3.10
2022-12-31T16:38:19.411Z,4.30
2022-12-31T16:41:24.209Z,5.82
2022-12-31T16:43:52.026Z,8.25
2022-12-31T16:46:30.636Z,7.72
2022-12-31T16:49:20.438Z,7.72
2022-12-31T16:51:49.711Z,10.10
2022-12-31T16:54:30.267Z,11.00
2022-12-31T16:57:00.164Z,9.80
2022-12-31T16:59:44.505Z,16.20
2022-12-31T17:02:35.133Z,16.25
2022-12-31T17:05:05.455Z,15.63
2022-12-31T17:07:36.681Z,13.60
2022-12-31T17:10:07.081Z,14.45
2022-12-31T17:13:25.529Z,15.10
2022-12-31T17:15:44.680Z,18.10
2022-12-31T17:18:24.046Z,19.20
2022-12-31T17:20:54.966Z,28.02
2022-12-31T17:23:32.593Z,29.92
2022-12-31T17:26:13.737Z,34.70
2022-12-31T17:28:48.796Z,33.28
2022-12-31T17:31:40.464Z,29.90
2022-12-31T17:34:13.983Z,28.73
2022-12-31T17:37:18.359Z,28.45
2022-12-31T17:40:24.479Z,24.15
2022-12-31T17:42:48.747Z,23.13
2022-12-31T17:45:22.364Z,22.15
2022-12-31T17:47:53.746Z,20.55
2022-12-31T17:50:26.793Z,20.85
2022-12-31T17:53:12.243Z,21.30
2022-12-31T17:55:51.840Z,21.25
2022-12-31T17:58:33.208Z,35.03
2022-12-31T18:01:02.209Z,46.38
2022-12-31T18:03:29.556Z,51.90
2022-12-31T18:05:57.098Z,48.35
2022-12-31T18:08:24.815Z,49.50
2022-12-31T18:10:54.498Z,54.17
2022-12-31T18:13:26.260Z,53.17
2022-12-31T18:15:54.879Z,56.20
2022-12-31T18:18:25.873Z,65.88
2022-12-31T18:21:09.236Z,82.22
2022-12-31T18:23:48.782Z,87.22
2022-12-31T18:26:21.142Z,157.95
2022-12-31T18:28:50.744Z,100.88
2022-12-31T18:31:26.205Z,93.07
2022-12-31T18:33:56.933Z,98.03
2022-12-31T18:36:28.908Z,93.10
2022-12-31T18:39:21.289Z,93.38
2022-12-31T18:41:49.603Z,97.85
2022-12-31T18:44:18.009Z,83.32
2022-12-31T18:46:45.561Z,88.85
2022-12-31T18:49:12.824Z,94.80
2022-12-31T18:51:40.415Z,96.35
2022-12-31T18:54:12.377Z,110.80
2022-12-31T18:56:46.532Z,105.28
2022-12-31T18:59:15.354Z,96.32
2022-12-31T19:01:43.277Z,100.53
2022-12-31T19:04:27.128Z,97.95
2022-12-31T19:06:56.555Z,94.28
2022-12-31T19:09:44.541Z,96.38
2022-12-31T19:12:15.488Z,93.38
2022-12-31T19:14:44.162Z,90.03
2022-12-31T19:17:11.551Z,101.05
2022-12-31T19:19:38.913Z,90.20
2022-12-31T19:22:06.617Z,99.47
2022-12-31T19:24:34.228Z,99.65
2022-12-31T19:27:02.333Z,91.45
2022-12-31T19:29:30.922Z,109.95
2022-12-31T19:32:01.009Z,92.82
2022-12-31T19:34:28.476Z,93.80
2022-12-31T19:36:56.038Z,97.15
2022-12-31T19:39:23.502Z,114.22
2022-12-31T19:41:58.504Z,100.93
2022-12-31T19:44:26.904Z,141.27
2022-12-31T19:46:54.376Z,160.98
2022-12-31T19:49:21.687Z,151.68
2022-12-31T19:51:49.068Z,143.85
2022-12-31T19:54:16.371Z,140.15
2022-12-31T19:56:43.805Z,113.05
2022-12-31T19:59:11.864Z,82.93
2022-12-31T20:01:39.484Z,100.03
2022-12-31T20:04:06.993Z,93.05
2022-12-31T20:06:34.590Z,87.65
2022-12-31T20:09:03.505Z,93.25
2022-12-31T20:11:31.830Z,86.25
2022-12-31T20:13:59.533Z,87.90
2022-12-31T20:16:27.207Z,77.38
2022-12-31T20:18:54.917Z,83.10
2022-12-31T20:21:27.564Z,72.38
2022-12-31T20:24:02.426Z,89.90
2022-12-31T20:26:30.274Z,91.95
2022-12-31T20:28:58.315Z,91.47
2022-12-31T20:31:26.539Z,75.28
2022-12-31T20:33:55.284Z,78.82
2022-12-31T20:36:30.059Z,74.55
2022-12-31T20:39:07.807Z,88.43
2022-12-31T20:41:35.471Z,92.05
2022-12-31T20:44:06.687Z,134.38
2022-12-31T20:46:34.842Z,140.15
2022-12-31T20:49:04.847Z,98.53
2022-12-31T20:52:25.270Z,90.70
2022-12-31T20:54:50.490Z,104.18
2022-12-31T20:57:21.147Z,85.80
2022-12-31T20:59:51.565Z,86.65
2022-12-31T21:02:29.503Z,83.88
2022-12-31T21:05:13.620Z,94.05
2022-12-31T21:07:58.910Z,87.65
2022-12-31T21:10:59.307Z,79.93
2022-12-31T21:13:35.853Z,82.45
2022-12-31T21:16:12.061Z,82.90
2022-12-31T21:18:39.915Z,86.20
2022-12-31T21:21:07.600Z,97.35
2022-12-31T21:23:39.343Z,109.35
2022-12-31T21:26:16.234Z,104.07
2022-12-31T21:28:44.146Z,127.43
2022-12-31T21:31:17.350Z,134.25
2022-12-31T21:33:49.487Z,134.52
2022-12-31T21:36:17.487Z,126.32
2022-12-31T21:38:45.326Z,118.25
2022-12-31T21:41:34.783Z,122.43
2022-12-31T21:44:03.798Z,115.53
2022-12-31T21:46:31.716Z,118.95
2022-12-31T21:49:01.975Z,78.80
2022-12-31T21:51:30.085Z,94.82
2022-12-31T21:53:58.275Z,79.63
2022-12-31T21:56:26.067Z,91.05
2022-12-31T21:59:17.419Z,80.75
2022-12-31T22:02:03.635Z,82.47
2022-12-31T22:07:18.327Z,82.35
2022-12-31T22:09:45.785Z,89.72
2022-12-31T22:12:13.100Z,90.38
2022-12-31T22:15:15.557Z,96.25
2022-12-31T22:17:31.451Z,93.13
2022-12-31T22:22:46.486Z,85.45
2022-12-31T22:25:16.081Z,98.32
2022-12-31T22:27:53.075Z,87.10
2022-12-31T22:30:31.402Z,93.35
2022-12-31T22:32:59.587Z,101.50
2022-12-31T22:35:26.961Z,95.70
2022-12-31T22:37:57.875Z,100.15
2022-12-31T22:40:26.544Z,98.95
2022-12-31T22:42:55.630Z,101.18
2022-12-31T22:45:23.083Z,105.95
2022-12-31T22:47:50.502Z,102.32
2022-12-31T22:50:18.746Z,104.30
2022-12-31T22:52:47.446Z,999.90
2022-12-31T22:55:19.423Z,325.60
2022-12-31T22:57:47.225Z,165.68
2022-12-31T23:00:15.828Z,407.65
2022-12-31T23:02:45.369Z,731.05
2022-12-31T23:05:16.272Z,421.88
2022-12-31T23:07:44.311Z,545.08
2022-12-31T23:10:31.529Z,553.88
2022-12-31T23:13:19.618Z,999.90
2022-12-31T23:16:05.838Z,999.90
2022-12-31T23:18:52.007Z,908.85
2022-12-31T23:21:38.247Z,665.50
2022-12-31T23:24:18.216Z,748.58
2022-12-31T23:26:49.002Z,733.58
2022-12-31T23:29:16.585Z,647.83
2022-12-31T23:31:44.014Z,683.10
2022-12-31T23:34:11.594Z,672.63
2022-12-31T23:36:39.259Z,647.53
2022-12-31T23:39:10.570Z,596.72
2022-12-31T23:41:38.203Z,701.58
2022-12-31T23:44:06.025Z,693.28
2022-12-31T23:46:33.559Z,647.08
2022-12-31T23:49:00.999Z,569.58
2022-12-31T23:51:28.705Z,510.50
2022-12-31T23:53:56.155Z,529.38
2022-12-31T23:56:24.237Z,584.17
2022-12-31T23:58:59.991Z,655.50
